createdAt,value
2019-04-26T00:01:56.072Z,12.90
2019-04-26T00:04:28.640Z,12.90
2019-04-26T00:07:00.578Z,12.80
2019-04-26T00:09:37.681Z,12.80
2019-04-26T00:12:26.670Z,12.70
2019-04-26T00:15:18.433Z,12.60
2019-04-26T00:17:54.642Z,12.50
2019-04-26T00:20:26.498Z,12.50
2019-04-26T00:22:58.454Z,12.50
2019-04-26T00:25:30.308Z,12.40
2019-04-26T00:28:02.312Z,12.40
2019-04-26T00:30:34.488Z,12.30
2019-04-26T00:33:07.083Z,12.20
2019-04-26T00:35:47.267Z,12.00
2019-04-26T00:38:14.148Z,11.90
2019-04-26T00:40:47.264Z,11.80
2019-04-26T00:43:20.563Z,11.70
2019-04-26T00:45:54.228Z,11.60
2019-04-26T00:48:27.073Z,11.50
2019-04-26T00:50:59.165Z,11.50
2019-04-26T00:53:31.678Z,11.40
2019-04-26T00:56:04.251Z,11.40
2019-04-26T00:58:36.704Z,11.40
2019-04-26T01:01:08.862Z,11.40
2019-04-26T01:03:41.094Z,11.40
2019-04-26T01:06:15.728Z,11.60
2019-04-26T01:08:51.140Z,11.60
2019-04-26T01:11:22.491Z,11.60
2019-04-26T01:13:54.381Z,11.50
2019-04-26T01:16:26.509Z,11.50
2019-04-26T01:18:59.937Z,11.50
2019-04-26T01:21:40.496Z,11.30
2019-04-26T01:24:14.098Z,11.10
2019-04-26T01:26:48.120Z,10.90
2019-04-26T01:29:22.197Z,10.70
2019-04-26T01:32:04.418Z,10.60
2019-04-26T01:37:26.744Z,10.40
2019-04-26T01:40:05.237Z,10.30
2019-04-26T01:43:07.745Z,10.30
2019-04-26T01:45:52.628Z,10.20
2019-04-26T01:48:45.996Z,10.10
2019-04-26T01:51:28.677Z,9.90
2019-04-26T01:54:00.540Z,9.90
2019-04-26T01:56:36.343Z,10.00
2019-04-26T01:59:10.357Z,10.00
2019-04-26T02:01:58.630Z,10.10
2019-04-26T02:04:32.754Z,10.20
2019-04-26T02:07:04.934Z,10.30
2019-04-26T02:09:37.119Z,10.40
2019-04-26T02:12:09.009Z,10.50
2019-04-26T02:14:41.239Z,10.60
2019-04-26T02:17:13.315Z,10.60
2019-04-26T02:19:45.478Z,10.50
2019-04-26T02:22:30.442Z,10.60
2019-04-26T02:25:02.302Z,10.50
2019-04-26T02:27:34.577Z,10.60
2019-04-26T02:30:08.420Z,10.70
2019-04-26T02:32:41.155Z,10.70
2019-04-26T02:35:13.532Z,10.80
2019-04-26T02:37:45.800Z,10.80
2019-04-26T02:40:18.757Z,10.80
2019-04-26T02:42:51.942Z,10.90
2019-04-26T02:46:10.171Z,10.90
2019-04-26T02:49:32.986Z,11.00
2019-04-26T02:52:48.460Z,11.00
2019-04-26T02:56:23.329Z,11.10
2019-04-26T02:59:48.126Z,11.00
2019-04-26T03:02:26.556Z,11.00
2019-04-26T03:05:02.796Z,10.90
2019-04-26T03:08:03.019Z,10.80
2019-04-26T03:10:44.265Z,10.90
2019-04-26T03:13:25.950Z,10.90
2019-04-26T03:16:29.362Z,10.90
2019-04-26T03:19:15.122Z,10.70
2019-04-26T03:22:05.723Z,10.50
2019-04-26T03:24:49.548Z,10.40
2019-04-26T03:28:10.600Z,10.30
2019-04-26T03:31:01.829Z,10.20
2019-04-26T03:34:01.928Z,10.30
2019-04-26T03:37:36.010Z,10.50
2019-04-26T03:40:34.594Z,10.60
2019-04-26T03:43:44.561Z,10.50
2019-04-26T03:47:01.453Z,10.70
2019-04-26T03:50:11.471Z,10.60
2019-04-26T03:53:46.243Z,10.60
2019-04-26T03:57:18.150Z,10.80
2019-04-26T04:00:18.993Z,10.60
2019-04-26T04:03:13.762Z,10.50
2019-04-26T04:05:49.139Z,10.50
2019-04-26T04:08:33.833Z,10.50
2019-04-26T04:11:10.152Z,10.60
2019-04-26T04:14:12.226Z,10.70
2019-04-26T04:17:37.359Z,10.60
2019-04-26T04:20:55.994Z,10.50
2019-04-26T04:23:51.888Z,10.50
2019-04-26T04:26:39.608Z,10.40
2019-04-26T04:29:42.948Z,10.30
2019-04-26T04:32:23.382Z,10.30
2019-04-26T04:34:57.067Z,10.40
2019-04-26T04:37:34.027Z,10.40
2019-04-26T04:40:37.547Z,10.50
2019-04-26T04:43:48.331Z,10.50
2019-04-26T04:47:24.381Z,10.60
2019-04-26T04:50:23.646Z,10.50
2019-04-26T04:53:49.618Z,10.40
2019-04-26T04:58:01.701Z,10.30
2019-04-26T05:01:33.043Z,10.30
2019-04-26T05:04:23.550Z,10.50
2019-04-26T05:07:31.770Z,10.60
2019-04-26T05:10:34.178Z,10.90
2019-04-26T05:13:46.411Z,11.10
2019-04-26T05:17:05.398Z,11.20
2019-04-26T05:20:17.914Z,11.40
2019-04-26T05:23:39.944Z,11.50
2019-04-26T05:27:04.877Z,11.60
2019-04-26T05:30:52.085Z,11.80
2019-04-26T05:34:12.845Z,11.90
2019-04-26T05:37:19.704Z,12.00
2019-04-26T05:40:30.298Z,12.00
2019-04-26T05:43:37.076Z,11.90
2019-04-26T05:47:04.806Z,12.10
2019-04-26T05:50:33.066Z,12.10
2019-04-26T05:54:43.295Z,12.10
2019-04-26T05:57:50.963Z,11.80
2019-04-26T06:00:53.916Z,12.10
2019-04-26T06:04:20.798Z,12.10
2019-04-26T06:07:45.035Z,12.10
2019-04-26T06:10:42.026Z,12.00
2019-04-26T06:14:04.270Z,11.90
2019-04-26T06:17:34.991Z,11.90
2019-04-26T06:20:32.277Z,11.90
2019-04-26T06:23:33.050Z,12.00
2019-04-26T06:27:10.334Z,11.80
2019-04-26T06:29:45.937Z,11.70
2019-04-26T06:32:32.822Z,12.00
2019-04-26T06:35:20.165Z,11.90
2019-04-26T06:39:19.872Z,12.00
2019-04-26T06:42:35.497Z,12.30
2019-04-26T06:46:06.617Z,12.50
2019-04-26T06:49:28.846Z,12.60
2019-04-26T06:52:08.561Z,12.50
2019-04-26T06:55:20.114Z,12.30
2019-04-26T06:58:45.309Z,12.40
2019-04-26T07:01:35.948Z,12.50
2019-04-26T07:05:22.946Z,12.70
2019-04-26T07:09:11.718Z,12.70
2019-04-26T07:12:37.027Z,12.80
2019-04-26T07:15:51.698Z,12.80
2019-04-26T07:18:56.698Z,12.90
2019-04-26T07:22:34.542Z,13.00
2019-04-26T07:25:54.009Z,12.90
2019-04-26T07:29:32.828Z,12.80
2019-04-26T07:33:28.744Z,12.70
2019-04-26T07:36:53.306Z,12.50
2019-04-26T07:40:23.033Z,12.50
2019-04-26T07:43:45.503Z,12.50
2019-04-26T07:47:25.756Z,12.30
2019-04-26T07:51:06.407Z,12.30
2019-04-26T07:54:45.871Z,12.50
2019-04-26T07:58:25.530Z,12.50
2019-04-26T08:01:17.726Z,12.40
2019-04-26T08:04:03.782Z,12.30
2019-04-26T08:06:53.373Z,12.10
2019-04-26T08:09:27.648Z,12.00
2019-04-26T08:12:06.116Z,11.70
2019-04-26T08:15:15.699Z,11.40
2019-04-26T08:17:57.187Z,11.30
2019-04-26T08:20:48.373Z,11.10
2019-04-26T08:23:41.667Z,11.30
2019-04-26T08:26:15.543Z,11.40
2019-04-26T08:28:49.544Z,11.40
2019-04-26T08:31:24.425Z,11.60
2019-04-26T08:34:02.335Z,11.70
2019-04-26T08:36:40.268Z,11.80
2019-04-26T08:39:29.709Z,11.90
2019-04-26T08:41:59.310Z,11.90
2019-04-26T08:44:53.431Z,12.00
2019-04-26T08:47:46.079Z,11.80
2019-04-26T08:50:27.592Z,11.60
2019-04-26T08:53:01.194Z,11.40
2019-04-26T08:55:34.738Z,11.30
2019-04-26T08:58:10.691Z,11.10
2019-04-26T09:00:51.831Z,10.90
2019-04-26T09:03:39.781Z,10.70
2019-04-26T09:06:19.027Z,10.60
2019-04-26T09:08:51.375Z,10.70
2019-04-26T09:11:29.985Z,10.80
2019-04-26T09:13:58.717Z,10.80
2019-04-26T09:16:30.545Z,10.80
2019-04-26T09:19:02.418Z,10.80
2019-04-26T09:21:42.292Z,10.90
2019-04-26T09:24:26.653Z,10.90
2019-04-26T09:27:24.037Z,10.60
2019-04-26T09:30:08.471Z,10.70
2019-04-26T09:33:08.297Z,10.70
2019-04-26T09:35:40.521Z,10.70
2019-04-26T09:38:12.670Z,10.70
2019-04-26T09:40:44.789Z,10.80
2019-04-26T09:43:38.584Z,10.80
2019-04-26T09:46:35.140Z,10.90
2019-04-26T09:49:23.641Z,10.90
2019-04-26T09:51:55.997Z,10.80
2019-04-26T09:54:27.809Z,10.90
2019-04-26T09:56:59.656Z,10.80
2019-04-26T09:59:31.844Z,10.90
2019-04-26T10:02:03.680Z,11.00
2019-04-26T10:04:35.510Z,11.10
2019-04-26T10:07:07.701Z,11.10
2019-04-26T10:09:39.509Z,11.10
2019-04-26T10:12:19.388Z,11.10
2019-04-26T10:14:56.380Z,10.90
2019-04-26T10:17:30.412Z,11.00
2019-04-26T10:20:02.215Z,11.00
2019-04-26T10:22:34.403Z,11.00
2019-04-26T10:25:14.178Z,11.00
2019-04-26T10:27:42.396Z,11.10
2019-04-26T10:30:17.087Z,11.20
2019-04-26T10:32:49.198Z,11.30
2019-04-26T10:35:21.783Z,11.40
2019-04-26T10:37:54.596Z,11.30
2019-04-26T10:40:35.249Z,11.40
2019-04-26T10:43:00.215Z,11.50
2019-04-26T10:45:32.295Z,11.40
2019-04-26T10:48:04.161Z,11.40
2019-04-26T10:50:36.077Z,11.40
2019-04-26T10:53:30.296Z,11.30
2019-04-26T10:56:20.278Z,11.10
2019-04-26T10:59:06.062Z,10.90
2019-04-26T11:01:38.288Z,10.70
2019-04-26T11:04:10.131Z,10.60
2019-04-26T11:06:41.932Z,10.40
2019-04-26T11:09:13.782Z,10.40
2019-04-26T11:11:45.849Z,10.40
2019-04-26T11:14:18.322Z,10.30
2019-04-26T11:16:51.343Z,10.30
2019-04-26T11:19:23.489Z,10.20
2019-04-26T11:21:56.025Z,10.00
2019-04-26T11:24:27.901Z,9.80
2019-04-26T11:26:59.986Z,9.60
2019-04-26T11:29:31.831Z,9.40
2019-04-26T11:32:04.300Z,9.20
2019-04-26T11:34:36.198Z,9.30
2019-04-26T11:37:08.058Z,9.20
2019-04-26T11:39:41.934Z,9.20
2019-04-26T11:42:14.088Z,9.20
2019-04-26T11:44:46.563Z,9.20
2019-04-26T11:47:18.628Z,9.30
2019-04-26T11:49:50.507Z,9.60
2019-04-26T11:52:22.339Z,9.80
2019-04-26T11:54:55.216Z,9.90
2019-04-26T11:57:27.705Z,9.80
2019-04-26T12:00:01.398Z,10.00
2019-04-26T12:02:37.618Z,10.10
2019-04-26T12:05:37.704Z,10.30
2019-04-26T12:08:12.928Z,10.30
2019-04-26T12:10:45.933Z,10.30
2019-04-26T12:13:21.342Z,10.30
2019-04-26T12:15:51.676Z,10.40
2019-04-26T12:18:23.825Z,10.50
2019-04-26T12:20:57.191Z,10.70
2019-04-26T12:23:29.270Z,10.80
2019-04-26T12:26:01.437Z,10.90
2019-04-26T12:28:36.295Z,10.80
2019-04-26T12:31:07.147Z,10.90
2019-04-26T12:33:43.120Z,10.80
2019-04-26T12:36:13.259Z,10.80
2019-04-26T12:38:46.425Z,11.00
2019-04-26T12:41:25.306Z,10.90
2019-04-26T12:43:54.477Z,10.70
2019-04-26T12:46:54.873Z,10.70
2019-04-26T12:49:26.687Z,10.60
2019-04-26T12:51:58.558Z,10.40
2019-04-26T12:54:30.637Z,10.40
2019-04-26T12:57:05.804Z,10.30
2019-04-26T12:59:44.057Z,10.40
2019-04-26T13:02:10.340Z,10.30
2019-04-26T13:04:44.453Z,10.40
2019-04-26T13:07:23.985Z,10.40
2019-04-26T13:10:20.490Z,10.40
2019-04-26T13:12:59.745Z,10.50
2019-04-26T13:16:02.504Z,10.60
2019-04-26T13:18:34.435Z,10.70
2019-04-26T13:21:06.307Z,10.90
2019-04-26T13:23:38.444Z,11.00
2019-04-26T13:26:10.610Z,11.10
2019-04-26T13:28:42.737Z,11.10
2019-04-26T13:31:14.619Z,11.10
2019-04-26T13:33:46.729Z,11.20
2019-04-26T13:36:18.540Z,11.20
2019-04-26T13:38:51.131Z,11.10
2019-04-26T13:41:22.912Z,11.10
2019-04-26T13:43:57.132Z,11.20
2019-04-26T13:46:42.829Z,11.30
2019-04-26T13:49:48.201Z,11.30
2019-04-26T13:52:19.238Z,11.30
2019-04-26T13:54:55.376Z,11.40
2019-04-26T13:57:25.173Z,11.50
2019-04-26T13:59:57.020Z,11.50
2019-04-26T14:02:28.827Z,11.60
2019-04-26T14:05:00.659Z,11.90
2019-04-26T14:07:32.454Z,12.20
2019-04-26T14:10:04.709Z,12.60
2019-04-26T14:12:37.219Z,12.50
2019-04-26T14:15:10.253Z,12.30
2019-04-26T14:17:42.166Z,12.40
2019-04-26T14:20:14.485Z,12.70
2019-04-26T14:22:55.061Z,12.90
2019-04-26T14:25:32.037Z,13.10
2019-04-26T14:28:03.931Z,13.20
2019-04-26T14:30:37.469Z,13.20
2019-04-26T14:33:09.882Z,13.20
2019-04-26T14:35:41.990Z,13.10
2019-04-26T14:38:13.806Z,12.80
2019-04-26T14:40:45.734Z,12.50
2019-04-26T14:43:18.332Z,12.60
2019-04-26T14:45:56.119Z,12.50
2019-04-26T14:48:35.705Z,12.70
2019-04-26T14:51:07.783Z,13.00
2019-04-26T14:53:36.226Z,13.20
2019-04-26T14:56:06.038Z,13.50
2019-04-26T14:58:37.833Z,13.40
2019-04-26T15:01:13.749Z,13.40
2019-04-26T15:03:51.385Z,13.10
2019-04-26T15:06:26.585Z,13.10
2019-04-26T15:08:58.366Z,13.20
2019-04-26T15:11:32.232Z,13.10
2019-04-26T15:14:03.977Z,13.30
2019-04-26T15:16:35.816Z,13.40
2019-04-26T15:19:09.926Z,13.30
2019-04-26T15:21:42.231Z,13.10
2019-04-26T15:24:14.142Z,13.00
2019-04-26T15:26:46.257Z,12.70
2019-04-26T15:29:21.264Z,12.40
2019-04-26T15:31:53.770Z,12.10
2019-04-26T15:34:26.629Z,12.00
2019-04-26T15:36:58.616Z,12.10
2019-04-26T15:40:02.671Z,12.10
2019-04-26T15:43:09.269Z,12.40
2019-04-26T15:45:57.000Z,12.50
2019-04-26T15:48:42.972Z,12.30
2019-04-26T15:51:15.906Z,12.10
2019-04-26T15:53:48.717Z,12.00
2019-04-26T15:56:22.301Z,12.20
2019-04-26T15:58:54.917Z,12.70
2019-04-26T16:01:26.724Z,13.10
2019-04-26T16:03:58.588Z,13.20
2019-04-26T16:06:32.123Z,13.20
2019-04-26T16:09:05.239Z,13.10
2019-04-26T16:11:37.187Z,13.10
2019-04-26T16:14:09.165Z,13.20
2019-04-26T16:16:42.371Z,13.10
2019-04-26T16:19:14.336Z,13.00
2019-04-26T16:21:48.174Z,12.80
2019-04-26T16:24:20.523Z,12.50
2019-04-26T16:26:55.968Z,12.30
2019-04-26T16:29:58.454Z,12.20
2019-04-26T16:32:58.799Z,12.10
2019-04-26T16:35:28.572Z,12.30
2019-04-26T16:38:19.983Z,12.30
2019-04-26T16:40:53.519Z,12.80
2019-04-26T16:43:36.400Z,13.40
2019-04-26T16:45:59.715Z,13.50
2019-04-26T16:48:31.653Z,13.50
2019-04-26T16:51:08.278Z,13.40
2019-04-26T16:53:52.086Z,13.30
2019-04-26T16:56:10.927Z,13.20
2019-04-26T16:58:45.324Z,13.10
2019-04-26T17:01:16.637Z,13.10
2019-04-26T17:03:48.829Z,13.00
2019-04-26T17:06:20.723Z,13.00
2019-04-26T17:09:00.866Z,13.00
2019-04-26T17:11:26.330Z,13.00
2019-04-26T17:14:04.072Z,13.10
2019-04-26T17:16:36.928Z,12.90
2019-04-26T17:19:06.328Z,12.80
2019-04-26T17:21:45.013Z,12.70
2019-04-26T17:24:30.870Z,12.70
2019-04-26T17:27:09.557Z,12.60
2019-04-26T17:29:38.921Z,12.50
2019-04-26T17:32:13.954Z,12.50
2019-04-26T17:34:44.274Z,12.50
2019-04-26T17:37:17.477Z,12.40
2019-04-26T17:39:52.214Z,12.40
2019-04-26T17:42:25.214Z,12.40
2019-04-26T17:44:57.506Z,12.40
2019-04-26T17:47:34.586Z,12.40
2019-04-26T17:50:06.359Z,12.40
2019-04-26T17:52:38.915Z,12.40
2019-04-26T17:55:14.023Z,12.30
2019-04-26T17:57:48.400Z,12.20
2019-04-26T18:00:27.066Z,12.00
2019-04-26T18:02:54.748Z,11.90
2019-04-26T18:05:41.759Z,12.00
2019-04-26T18:08:30.462Z,12.00
2019-04-26T18:10:35.648Z,12.00
2019-04-26T18:13:11.271Z,12.00
2019-04-26T18:15:46.826Z,11.90
2019-04-26T18:18:34.643Z,11.90
2019-04-26T18:21:27.526Z,11.80
2019-04-26T18:23:59.725Z,11.70
2019-04-26T18:26:32.764Z,11.70
2019-04-26T18:29:04.801Z,11.70
2019-04-26T18:31:36.887Z,11.70
2019-04-26T18:34:08.730Z,11.70
2019-04-26T18:36:40.815Z,11.70
2019-04-26T18:39:14.434Z,11.70
2019-04-26T18:41:46.514Z,11.70
2019-04-26T18:44:18.622Z,11.70
2019-04-26T18:46:58.663Z,11.60
2019-04-26T18:49:30.583Z,11.50
2019-04-26T18:52:03.724Z,11.50
2019-04-26T18:54:41.721Z,11.50
2019-04-26T18:57:16.924Z,11.40
2019-04-26T18:59:51.051Z,11.40
2019-04-26T19:02:23.549Z,11.30
2019-04-26T19:04:55.798Z,11.30
2019-04-26T19:07:32.292Z,11.30
2019-04-26T19:10:05.110Z,11.30
2019-04-26T19:12:35.013Z,11.30
2019-04-26T19:15:40.354Z,11.40
2019-04-26T19:18:19.529Z,11.50
2019-04-26T19:21:06.804Z,11.50
2019-04-26T19:23:38.899Z,11.50
2019-04-26T19:26:13.766Z,11.40
2019-04-26T19:28:44.880Z,11.30
2019-04-26T19:31:19.301Z,11.30
2019-04-26T19:33:51.734Z,11.20
2019-04-26T19:36:26.201Z,11.10
2019-04-26T19:38:57.806Z,11.10
2019-04-26T19:41:31.419Z,11.00
2019-04-26T19:44:03.395Z,10.80
2019-04-26T19:47:03.250Z,10.80
2019-04-26T19:49:52.370Z,10.70
2019-04-26T19:52:47.741Z,10.80
2019-04-26T19:55:41.824Z,10.80
2019-04-26T19:58:20.056Z,10.70
2019-04-26T20:00:48.200Z,10.60
2019-04-26T20:03:20.767Z,10.60
2019-04-26T20:05:53.019Z,10.60
2019-04-26T20:08:24.861Z,10.70
2019-04-26T20:10:56.837Z,10.80
2019-04-26T20:13:28.681Z,10.70
2019-04-26T20:16:02.688Z,10.80
2019-04-26T20:18:38.695Z,10.80
2019-04-26T20:21:12.395Z,10.60
2019-04-26T20:23:45.835Z,10.40
2019-04-26T20:26:15.537Z,10.40
2019-04-26T20:28:48.072Z,10.40
2019-04-26T20:31:29.955Z,10.40
2019-04-26T20:34:05.620Z,10.40
2019-04-26T20:36:40.721Z,10.40
2019-04-26T20:39:09.789Z,10.40
2019-04-26T20:41:41.820Z,10.30
2019-04-26T20:44:13.695Z,10.20
2019-04-26T20:46:45.515Z,10.10
2019-04-26T20:49:19.240Z,10.00
2019-04-26T20:51:51.894Z,10.10
2019-04-26T20:54:24.312Z,10.20
2019-04-26T20:56:56.199Z,10.20
2019-04-26T20:59:28.274Z,10.30
2019-04-26T21:02:07.535Z,10.30
2019-04-26T21:04:38.006Z,10.30
2019-04-26T21:07:11.337Z,10.30
2019-04-26T21:09:43.523Z,10.30
2019-04-26T21:12:18.337Z,10.30
2019-04-26T21:14:49.213Z,10.30
2019-04-26T21:17:26.383Z,10.30
2019-04-26T21:19:58.531Z,10.20
2019-04-26T21:22:29.019Z,10.10
2019-04-26T21:25:12.678Z,10.10
2019-04-26T21:28:06.532Z,10.10
2019-04-26T21:30:41.771Z,10.10
2019-04-26T21:33:20.453Z,10.00
2019-04-26T21:36:14.206Z,10.00
2019-04-26T21:39:20.299Z,10.10
2019-04-26T21:41:53.224Z,10.20
2019-04-26T21:44:25.599Z,10.30
2019-04-26T21:46:58.994Z,10.20
2019-04-26T21:49:32.657Z,10.20
2019-04-26T21:52:05.221Z,10.20
2019-04-26T21:54:37.196Z,10.20
2019-04-26T21:57:09.060Z,10.10
2019-04-26T21:59:43.778Z,10.00
2019-04-26T22:02:14.715Z,9.90
2019-04-26T22:04:46.515Z,9.90
2019-04-26T22:07:19.119Z,9.90
2019-04-26T22:10:10.768Z,10.00
2019-04-26T22:12:43.267Z,9.90
2019-04-26T22:15:37.474Z,10.00
2019-04-26T22:18:21.625Z,10.00
2019-04-26T22:21:21.605Z,10.00
2019-04-26T22:24:14.877Z,9.90
2019-04-26T22:26:48.068Z,9.90
2019-04-26T22:29:20.396Z,10.00
2019-04-26T22:31:54.593Z,10.10
2019-04-26T22:34:26.864Z,10.20
2019-04-26T22:37:01.777Z,10.20
2019-04-26T22:39:39.842Z,10.20
2019-04-26T22:42:06.718Z,10.20
2019-04-26T22:44:46.169Z,10.30
2019-04-26T22:47:24.138Z,10.30
2019-04-26T22:49:56.290Z,10.30
2019-04-26T22:52:28.375Z,10.30
2019-04-26T22:55:00.852Z,10.30
2019-04-26T22:57:33.365Z,10.30
2019-04-26T23:00:06.977Z,10.20
2019-04-26T23:02:39.172Z,10.20
2019-04-26T23:05:11.249Z,10.30
2019-04-26T23:07:43.039Z,10.30
2019-04-26T23:10:16.418Z,10.30
2019-04-26T23:13:07.936Z,10.40
2019-04-26T23:16:08.264Z,10.40
2019-04-26T23:18:47.322Z,10.40
2019-04-26T23:21:25.042Z,10.30
2019-04-26T23:23:56.973Z,10.20
2019-04-26T23:26:29.099Z,10.20
2019-04-26T23:29:00.981Z,10.20
2019-04-26T23:31:33.496Z,10.30
2019-04-26T23:34:05.631Z,10.30
2019-04-26T23:36:37.496Z,10.30
2019-04-26T23:39:12.138Z,10.40
2019-04-26T23:41:44.605Z,10.40
2019-04-26T23:44:16.774Z,10.40
2019-04-26T23:46:49.006Z,10.40
2019-04-26T23:49:20.816Z,10.40
2019-04-26T23:51:53.354Z,10.50
2019-04-26T23:54:28.082Z,10.40
2019-04-26T23:56:59.528Z,10.30
2019-04-26T23:59:31.323Z,10.30
